Time;durP1;ratioP1;P1;durP2;ratioP2;P2;SDS_P1;SDS_P2;PMS_P1;PMS_P2;Temp;Humidity;BMP_temperature;BMP_pressure;BME280_temperature;BME280_humidity;BME280_pressure;Samples;Min_cycle;Max_cycle;Signal;HPM_P1;HPM_P2
2022/11/19 00:01:17;;;;;;;34.58;26.88;;;282.50;2278.40;;;;;;5029592;28;20025;-59
2022/11/19 00:03:44;;;;;;;34.83;27.45;;;307.20;2304.00;;;;;;5029793;28;20075;-58
2022/11/19 00:06:15;;;;;;;38.63;30.98;;;282.50;2278.40;;;;;;5029404;28;20028;-59
2022/11/19 00:08:41;;;;;;;30.70;24.02;;;307.20;2304.00;;;;;;5029549;28;20543;-58
2022/11/19 00:11:15;;;;;;;29.65;22.35;;;307.20;2304.00;;;;;;5029600;28;20040;-58
2022/11/19 00:13:42;;;;;;;27.25;19.98;;;307.20;2304.00;;;;;;5029638;28;20064;-58
2022/11/19 00:16:13;;;;;;;29.13;22.45;;;307.20;2304.00;;;;;;5029294;28;20514;-58
2022/11/19 00:18:40;;;;;;;31.90;27.30;;;307.20;2304.00;;;;;;5029350;28;20502;-60
2022/11/19 00:21:10;;;;;;;34.78;31.02;;;282.50;2278.40;;;;;;5029474;28;20025;-58
2022/11/19 00:23:36;;;;;;;92.72;77.38;;;282.50;2278.40;;;;;;5029499;28;20372;-58
2022/11/19 00:26:10;;;;;;;70.03;56.17;;;282.50;2278.40;;;;;;5029432;28;20051;-59
2022/11/19 00:28:37;;;;;;;75.15;57.13;;;282.50;2278.40;;;;;;5029285;28;20025;-59
2022/11/19 00:31:09;;;;;;;67.55;57.35;;;282.50;2278.40;;;;;;5029429;28;20033;-58
2022/11/19 00:33:36;;;;;;;44.05;35.55;;;282.50;2278.40;;;;;;5029568;28;20030;-58
2022/11/19 00:36:03;;;;;;;58.33;48.92;;;282.30;2278.40;;;;;;5030858;28;20970;-58
2022/11/19 00:38:30;;;;;;;72.82;53.05;;;282.30;2278.40;;;;;;5032777;28;20040;-58
2022/11/19 00:40:56;;;;;;;147.02;110.78;;;282.30;2278.40;;;;;;5032718;28;20028;-59
2022/11/19 00:46:07;;;;;;;54.33;44.80;;;282.30;2278.40;;;;;;5032660;28;20111;-59
2022/11/19 00:48:33;;;;;;;44.17;33.25;;;282.20;2278.40;;;;;;5032782;28;20507;-58
2022/11/19 00:50:58;;;;;;;50.83;38.42;;;282.10;2278.40;;;;;;5032563;28;20021;-59
2022/11/19 00:53:24;;;;;;;72.80;48.45;;;282.10;2278.40;;;;;;5032751;28;20029;-58
2022/11/19 00:55:50;;;;;;;84.43;69.10;;;282.50;2278.40;;;;;;5032643;28;20014;-58
2022/11/19 00:58:16;;;;;;;41.63;33.55;;;282.10;2278.40;;;;;;5032546;28;20567;-58
2022/11/19 01:00:42;;;;;;;40.80;28.95;;;282.10;2278.40;;;;;;5032632;28;20033;-58
2022/11/19 01:03:07;;;;;;;38.83;29.58;;;282.10;2278.40;;;;;;5032313;28;20482;-58
2022/11/19 01:05:33;;;;;;;26.52;21.25;;;282.10;2278.40;;;;;;5032404;28;20034;-57
2022/11/19 01:07:59;;;;;;;31.77;23.23;;;281.90;2278.40;;;;;;5032255;28;20083;-58
2022/11/19 01:10:26;;;;;;;37.70;23.80;;;281.90;2278.40;;;;;;5032517;28;20439;-59
2022/11/19 01:15:36;;;;;;;31.48;24.98;;;281.80;2278.40;;;;;;5032257;28;20053;-59
2022/11/19 01:18:01;;;;;;;37.58;29.90;;;281.70;2278.40;;;;;;5032248;28;20033;-58
2022/11/19 01:20:27;;;;;;;67.35;49.28;;;281.60;2278.40;;;;;;5031892;28;20510;-58
2022/11/19 01:22:53;;;;;;;78.68;55.13;;;256.90;2252.80;;;;;;5032434;28;20025;-62
2022/11/19 01:25:19;;;;;;;51.15;36.45;;;256.90;2252.80;;;;;;5028745;28;20092;-59
2022/11/19 01:27:45;;;;;;;54.63;41.38;;;256.80;2252.80;;;;;;5024232;28;20404;-58
2022/11/19 01:30:11;;;;;;;33.63;23.55;;;256.80;1894.40;;;;;;5032004;28;20487;-59
2022/11/19 01:32:37;;;;;;;33.35;24.65;;;256.70;2073.60;;;;;;5031859;28;20056;-58
2022/11/19 01:35:03;;;;;;;37.75;29.23;;;256.60;1996.80;;;;;;5031857;28;20037;-59
2022/11/19 01:37:29;;;;;;;22.25;16.30;;;256.50;2252.80;;;;;;5031697;28;20079;-59
2022/11/19 01:39:54;;;;;;;45.55;35.13;;;256.30;2252.80;;;;;;5031962;28;20018;-58
2022/11/19 01:42:48;;;;;;;40.97;31.35;;;256.80;2252.80;;;;;;5028544;28;20480;-58
2022/11/19 01:45:36;;;;;;;72.55;52.45;;;256.30;2252.80;;;;;;5022201;28;20083;-58
2022/11/19 01:48:25;;;;;;;49.75;32.15;;;256.20;2252.80;;;;;;5022212;28;20038;-58
2022/11/19 01:50:55;;;;;;;39.28;31.42;;;256.10;2252.80;;;;;;5022503;28;20556;-59
2022/11/19 01:53:26;;;;;;;28.90;20.83;;;256.00;2252.80;;;;;;5021294;28;20025;-58
2022/11/19 01:55:52;;;;;;;21.88;14.18;;;256.00;2252.80;;;;;;5022319;28;20099;-58
2022/11/19 01:58:22;;;;;;;21.10;15.90;;;231.20;2252.80;;;;;;5020437;28;20018;-58
2022/11/19 02:00:48;;;;;;;30.05;17.90;;;231.10;2252.80;;;;;;5020052;28;20025;-58
2022/11/19 02:03:15;;;;;;;26.88;20.05;;;231.20;2252.80;;;;;;5021929;28;20379;-58
2022/11/19 02:05:42;;;;;;;20.48;16.50;;;231.10;2252.80;;;;;;5021055;28;20026;-58
2022/11/19 02:08:28;;;;;;;20.83;16.88;;;231.00;2252.80;;;;;;5020327;28;20029;-59
2022/11/19 02:11:11;;;;;;;19.85;13.15;;;231.10;2252.80;;;;;;5021909;28;20057;-59
2022/11/19 02:14:11;;;;;;;16.83;12.57;;;231.10;2252.80;;;;;;5021753;28;20566;-60
2022/11/19 02:17:02;;;;;;;18.48;13.65;;;230.90;2252.80;;;;;;5004581;28;20058;-64
2022/11/19 02:20:17;;;;;;;17.52;11.85;;;230.90;2252.80;;;;;;5021359;28;20018;-58
2022/11/19 02:23:01;;;;;;;13.02;8.85;;;230.90;2252.80;;;;;;5021804;28;20158;-58
2022/11/19 02:25:46;;;;;;;27.38;19.73;;;231.10;2252.80;;;;;;5021530;28;20125;-58
2022/11/19 02:28:42;;;;;;;24.65;17.13;;;231.00;2252.80;;;;;;5021896;28;20483;-58
2022/11/19 02:31:35;;;;;;;22.70;15.48;;;231.00;2252.80;;;;;;5021524;28;20101;-58
2022/11/19 02:34:23;;;;;;;21.13;12.98;;;230.90;2252.80;;;;;;5021329;28;20030;-58
2022/11/19 02:37:15;;;;;;;12.93;8.85;;;230.90;2252.80;;;;;;5019462;28;20045;-58
2022/11/19 02:40:05;;;;;;;21.85;15.18;;;230.90;2022.40;;;;;;5021563;28;20519;-58
2022/11/19 02:43:01;;;;;;;12.90;10.00;;;230.70;2252.80;;;;;;5019342;28;20100;-58
2022/11/19 02:45:46;;;;;;;21.27;14.70;;;230.70;2252.80;;;;;;5021229;28;20442;-57
2022/11/19 02:48:22;;;;;;;18.73;13.85;;;230.80;2252.80;;;;;;5021329;28;20485;-60
2022/11/19 02:50:51;;;;;;;12.98;9.40;;;230.80;2252.80;;;;;;5027300;28;20028;-58
2022/11/19 02:53:18;;;;;;;44.55;27.67;;;230.80;2227.20;;;;;;5030304;28;20022;-58
2022/11/19 03:06:43;;;;;;;24.73;16.60;;;230.70;2252.80;;;;;;5030629;28;20040;-58
2022/11/19 03:09:10;;;;;;;27.02;19.17;;;230.80;2252.80;;;;;;5030090;28;20033;-58
2022/11/19 03:11:35;;;;;;;25.48;18.63;;;230.70;2252.80;;;;;;5030135;28;20021;-60
2022/11/19 03:17:14;;;;;;;20.67;13.02;;;230.70;2252.80;;;;;;5030079;28;20055;-58
2022/11/19 03:19:57;;;;;;;12.93;9.40;;;230.70;1920.00;;;;;;5030081;28;20163;-58
2022/11/19 03:22:49;;;;;;;10.73;6.53;;;230.70;2252.80;;;;;;5030206;28;20079;-57
2022/11/19 03:25:17;;;;;;;11.25;7.28;;;230.60;2252.80;;;;;;5029782;28;20749;-60
2022/11/19 03:28:06;;;;;;;10.93;7.75;;;230.60;2252.80;;;;;;5030057;28;20025;-58
2022/11/19 03:30:32;;;;;;;11.48;7.30;;;230.60;2252.80;;;;;;5030000;28;20503;-58
2022/11/19 03:33:08;;;;;;;12.23;7.65;;;230.60;2252.80;;;;;;5029722;28;20100;-59
2022/11/19 03:35:41;;;;;;;11.70;6.78;;;230.60;2252.80;;;;;;5030168;28;20357;-57
2022/11/19 03:38:10;;;;;;;11.43;7.70;;;230.60;2252.80;;;;;;5029945;28;20021;-57
2022/11/19 03:40:37;;;;;;;14.68;9.32;;;230.50;2252.80;;;;;;5029908;28;20022;-59
2022/11/19 03:43:06;;;;;;;17.50;9.57;;;230.50;2252.80;;;;;;5029904;28;20026;-58
2022/11/19 03:45:38;;;;;;;14.48;8.70;;;230.50;2252.80;;;;;;5029621;28;20032;-58
2022/11/19 03:48:06;;;;;;;10.07;5.88;;;230.50;2252.80;;;;;;5029827;28;20041;-61
2022/11/19 03:50:42;;;;;;;11.27;7.03;;;230.50;2252.80;;;;;;5029911;28;20029;-59
2022/11/19 03:53:08;;;;;;;12.60;6.70;;;230.50;2252.80;;;;;;5029960;28;20024;-59
2022/11/19 03:55:41;;;;;;;7.50;5.70;;;230.50;2252.80;;;;;;5029940;28;20025;-59
2022/11/19 03:58:09;;;;;;;8.55;6.35;;;230.50;2252.80;;;;;;5029654;28;20068;-58
2022/11/19 04:00:36;;;;;;;8.68;6.30;;;230.50;2252.80;;;;;;5029715;28;20083;-59
2022/11/19 04:03:01;;;;;;;10.88;7.22;;;230.40;2252.80;;;;;;5029577;28;20495;-58
2022/11/19 04:05:27;;;;;;;10.10;6.88;;;230.40;2252.80;;;;;;5029345;28;20022;-59
2022/11/19 04:07:53;;;;;;;10.82;7.25;;;230.40;2252.80;;;;;;5029761;28;20021;-58
2022/11/19 04:10:18;;;;;;;35.72;21.75;;;205.70;2252.80;;;;;;5029947;28;20383;-59
2022/11/19 04:12:44;;;;;;;63.63;37.00;;;205.70;2252.80;;;;;;5033477;28;20021;-59
2022/11/19 04:15:14;;;;;;;16.60;12.13;;;205.70;2252.80;;;;;;5033294;28;20068;-58
2022/11/19 04:17:40;;;;;;;15.13;10.68;;;205.70;2252.80;;;;;;5033424;28;20388;-59
2022/11/19 04:20:07;;;;;;;16.00;11.23;;;205.70;2252.80;;;;;;5033222;28;20018;-58
2022/11/19 04:22:33;;;;;;;15.38;11.07;;;230.40;2252.80;;;;;;5033352;28;20041;-57
2022/11/19 04:24:58;;;;;;;11.50;7.93;;;230.40;2252.80;;;;;;5033160;28;20033;-58
2022/11/19 04:27:25;;;;;;;9.88;8.10;;;230.40;2252.80;;;;;;5031828;28;20034;-59
2022/11/19 04:29:51;;;;;;;12.77;9.77;;;230.40;2252.80;;;;;;5033284;28;20120;-58
2022/11/19 04:32:17;;;;;;;12.48;10.05;;;205.70;2252.80;;;;;;5033198;28;20117;-58
2022/11/19 04:34:42;;;;;;;18.10;15.90;;;205.70;2252.80;;;;;;5032984;28;20384;-60
2022/11/19 04:37:08;;;;;;;38.08;23.88;;;230.40;2252.80;;;;;;5033058;28;20025;-58
2022/11/19 04:39:34;;;;;;;22.85;17.10;;;230.40;2252.80;;;;;;5033232;28;20460;-58
2022/11/19 04:41:59;;;;;;;17.73;12.55;;;230.40;2252.80;;;;;;5032707;28;20465;-59
2022/11/19 04:44:25;;;;;;;17.20;14.43;;;230.40;2252.80;;;;;;5032807;28;20026;-59
2022/11/19 04:46:51;;;;;;;12.23;10.93;;;205.70;2252.80;;;;;;5030818;28;20060;-58
2022/11/19 04:49:16;;;;;;;16.25;14.48;;;205.70;2252.80;;;;;;5032479;28;20095;-57
2022/11/19 04:51:42;;;;;;;11.50;10.20;;;205.70;2252.80;;;;;;5032895;28;20026;-58
2022/11/19 04:54:08;;;;;;;10.95;8.07;;;205.70;2252.80;;;;;;5032668;28;20037;-58
2022/11/19 04:56:35;;;;;;;11.52;9.38;;;205.70;2252.80;;;;;;5032864;28;20021;-58
2022/11/19 04:59:02;;;;;;;10.90;9.13;;;205.70;2252.80;;;;;;5014963;28;20029;-58
2022/11/19 05:01:27;;;;;;;23.10;20.98;;;205.60;2252.80;;;;;;5032308;28;20050;-58
2022/11/19 05:03:53;;;;;;;16.25;13.68;;;205.70;2252.80;;;;;;5032678;28;20049;-58
2022/11/19 05:06:19;;;;;;;18.83;13.77;;;230.40;2252.80;;;;;;5032264;28;20545;-57
2022/11/19 05:08:44;;;;;;;20.70;16.13;;;230.40;2252.80;;;;;;5032316;28;20033;-57
2022/11/19 05:11:10;;;;;;;21.65;17.35;;;230.50;2252.80;;;;;;5031698;28;20037;-58
2022/11/19 05:13:36;;;;;;;13.32;11.93;;;230.50;2252.80;;;;;;5032252;28;20033;-58
2022/11/19 05:16:02;;;;;;;16.98;10.98;;;230.50;2252.80;;;;;;5032185;28;20415;-57
2022/11/19 05:18:27;;;;;;;13.30;9.52;;;230.50;2252.80;;;;;;5032023;28;20026;-60
2022/11/19 05:20:53;;;;;;;13.60;10.13;;;230.40;2252.80;;;;;;5032228;28;20036;-58
2022/11/19 05:23:19;;;;;;;12.10;7.68;;;230.40;2252.80;;;;;;5031902;28;20452;-58
2022/11/19 05:25:45;;;;;;;13.40;8.02;;;205.70;2252.80;;;;;;5032054;28;20365;-59
2022/11/19 05:28:11;;;;;;;10.40;7.28;;;205.60;2252.80;;;;;;5032010;28;20032;-58
2022/11/19 05:30:37;;;;;;;9.40;7.22;;;205.60;2252.80;;;;;;5032015;28;20037;-58
2022/11/19 05:33:03;;;;;;;10.63;5.30;;;205.60;2252.80;;;;;;5031996;28;20464;-57
2022/11/19 05:35:28;;;;;;;7.25;5.90;;;205.70;2252.80;;;;;;5031789;28;20140;-59
2022/11/19 05:37:54;;;;;;;8.98;5.97;;;205.70;2252.80;;;;;;5031999;28;20052;-58
2022/11/19 05:40:20;;;;;;;55.30;44.25;;;205.70;2252.80;;;;;;5031733;28;20052;-60
2022/11/19 05:42:45;;;;;;;54.08;39.60;;;205.50;2252.80;;;;;;5031607;28;20029;-58
2022/11/19 05:45:11;;;;;;;50.83;39.17;;;205.60;2252.80;;;;;;5031607;28;20022;-57
2022/11/19 05:47:37;;;;;;;32.67;23.48;;;205.60;2252.80;;;;;;5031672;28;20018;-57
2022/11/19 05:50:04;;;;;;;21.13;15.77;;;205.70;2252.80;;;;;;5031655;28;20044;-58
2022/11/19 05:52:30;;;;;;;17.13;14.65;;;205.70;2252.80;;;;;;5031453;28;20025;-58
2022/11/19 05:54:55;;;;;;;26.85;19.92;;;205.70;2252.80;;;;;;5031402;28;20479;-58
2022/11/19 05:57:21;;;;;;;29.35;20.02;;;205.70;2252.80;;;;;;5031523;28;20055;-58
2022/11/19 05:59:47;;;;;;;29.15;16.92;;;205.70;2252.80;;;;;;5031386;28;20025;-58
2022/11/19 06:02:12;;;;;;;24.45;17.65;;;230.40;2252.80;;;;;;5031399;28;20424;-58
2022/11/19 06:04:38;;;;;;;21.95;15.27;;;230.50;2252.80;;;;;;5031390;28;20032;-58
2022/11/19 06:07:04;;;;;;;46.75;39.13;;;230.50;2252.80;;;;;;5031709;28;20053;-58
2022/11/19 06:09:29;;;;;;;39.33;32.78;;;230.40;2252.80;;;;;;5031162;28;20040;-58
2022/11/19 06:11:57;;;;;;;27.35;22.90;;;230.50;2252.80;;;;;;5031158;28;20028;-58
2022/11/19 06:14:24;;;;;;;19.30;12.68;;;230.60;2252.80;;;;;;5031340;28;20099;-58
2022/11/19 06:16:55;;;;;;;16.33;12.63;;;230.60;2252.80;;;;;;5030775;28;20514;-57
2022/11/19 06:19:21;;;;;;;20.15;14.20;;;230.60;2252.80;;;;;;5031280;28;20079;-58
2022/11/19 06:21:47;;;;;;;15.07;11.63;;;230.70;2252.80;;;;;;5030857;28;20056;-58
2022/11/19 06:24:13;;;;;;;16.30;11.60;;;230.60;2252.80;;;;;;5031267;28;20033;-57
2022/11/19 06:26:40;;;;;;;11.75;9.20;;;230.70;2252.80;;;;;;5030881;28;20029;-59
2022/11/19 06:29:06;;;;;;;27.83;20.05;;;230.70;2252.80;;;;;;5030794;28;20044;-58
2022/11/19 06:31:32;;;;;;;45.33;34.28;;;230.80;2252.80;;;;;;5030905;28;20036;-60
2022/11/19 06:33:58;;;;;;;55.22;38.38;;;230.60;2252.80;;;;;;5030028;28;20030;-56
2022/11/19 06:36:24;;;;;;;37.25;23.17;;;230.70;2252.80;;;;;;5013065;28;20395;-57
2022/11/19 06:38:50;;;;;;;38.95;28.45;;;230.80;2252.80;;;;;;5030616;28;20471;-57
2022/11/19 06:41:16;;;;;;;45.85;30.90;;;230.80;2252.80;;;;;;5030587;28;20026;-59
2022/11/19 06:43:42;;;;;;;39.42;27.25;;;230.80;2252.80;;;;;;5030821;28;20036;-58
2022/11/19 06:46:09;;;;;;;33.50;24.08;;;230.90;2252.80;;;;;;5030302;28;20029;-58
2022/11/19 06:48:35;;;;;;;69.60;48.80;;;230.90;2252.80;;;;;;5030675;28;20534;-57
2022/11/19 06:51:01;;;;;;;119.88;77.80;;;230.90;2252.80;;;;;;5030410;28;20025;-62
2022/11/19 06:53:27;;;;;;;155.80;113.38;;;230.90;2252.80;;;;;;5030111;28;20483;-58
2022/11/19 06:55:57;;;;;;;103.78;72.38;;;231.00;2252.80;;;;;;5030603;28;20037;-57
2022/11/19 06:58:23;;;;;;;87.75;63.42;;;231.10;2252.80;;;;;;5030456;28;20037;-56
2022/11/19 07:00:49;;;;;;;83.38;64.45;;;231.10;2252.80;;;;;;5030094;28;20052;-59
2022/11/19 07:03:15;;;;;;;65.78;47.45;;;231.20;2252.80;;;;;;5030550;28;20113;-57
2022/11/19 07:05:41;;;;;;;57.00;41.72;;;231.30;2252.80;;;;;;5030151;28;20028;-57
2022/11/19 07:08:07;;;;;;;71.57;51.50;;;231.30;2252.80;;;;;;5030102;28;20539;-59
2022/11/19 07:10:33;;;;;;;81.68;58.90;;;231.30;2252.80;;;;;;5030361;28;20133;-58
2022/11/19 07:12:59;;;;;;;98.68;66.55;;;256.00;2252.80;;;;;;5029990;28;20060;-61
2022/11/19 07:15:25;;;;;;;142.32;99.82;;;256.10;2252.80;;;;;;5029818;28;20399;-57
2022/11/19 07:17:51;;;;;;;203.20;146.52;;;256.00;2252.80;;;;;;5030173;28;20024;-57
2022/11/19 07:20:16;;;;;;;186.27;145.60;;;231.30;2252.80;;;;;;5030016;28;20063;-56
2022/11/19 07:22:43;;;;;;;196.15;151.25;;;231.10;2252.80;;;;;;5030057;28;20476;-56
2022/11/19 07:25:12;;;;;;;210.40;158.25;;;231.00;2252.80;;;;;;5029999;28;20438;-55
2022/11/19 07:27:47;;;;;;;194.75;149.38;;;231.10;2252.80;;;;;;5030086;28;20029;-55
2022/11/19 07:30:16;;;;;;;185.52;147.70;;;231.10;2252.80;;;;;;5029840;28;20041;-55
2022/11/19 07:32:42;;;;;;;192.38;152.73;;;231.10;2252.80;;;;;;5029861;28;20476;-55
2022/11/19 07:35:08;;;;;;;189.88;149.15;;;231.20;2252.80;;;;;;5029767;28;20478;-56
2022/11/19 07:37:37;;;;;;;179.90;147.70;;;256.00;2252.80;;;;;;5030208;28;20018;-56
2022/11/19 07:40:04;;;;;;;92.05;65.32;;;256.10;2252.80;;;;;;5029875;28;20033;-56
2022/11/19 07:42:48;;;;;;;91.25;64.97;;;256.00;2252.80;;;;;;5029470;28;20017;-55
2022/11/19 07:45:19;;;;;;;115.63;89.25;;;256.00;2252.80;;;;;;5031977;28;20029;-55
2022/11/19 07:47:44;;;;;;;156.73;122.00;;;256.00;2252.80;;;;;;5034001;28;20353;-56
2022/11/19 07:50:11;;;;;;;180.07;140.02;;;256.10;2252.80;;;;;;5033702;28;20041;-55
2022/11/19 07:52:37;;;;;;;190.50;136.60;;;256.20;2252.80;;;;;;5033769;28;20041;-55
2022/11/19 07:55:03;;;;;;;164.50;126.35;;;256.10;2252.80;;;;;;5033871;28;20387;-55
2022/11/19 07:57:29;;;;;;;175.73;139.90;;;256.20;2252.80;;;;;;5033555;28;20027;-56
2022/11/19 07:59:54;;;;;;;130.82;99.57;;;256.40;2252.80;;;;;;5033821;28;20028;-55
2022/11/19 08:02:20;;;;;;;116.10;84.75;;;256.50;2252.80;;;;;;5033670;28;20032;-56
2022/11/19 08:04:46;;;;;;;87.50;64.95;;;256.40;2252.80;;;;;;5033480;28;20023;-56
2022/11/19 08:07:11;;;;;;;97.13;69.70;;;256.30;2252.80;;;;;;5033629;28;20025;-56
2022/11/19 08:09:37;;;;;;;110.57;85.90;;;256.30;2252.80;;;;;;5033382;28;20388;-55
2022/11/19 08:12:03;;;;;;;111.50;80.00;;;256.40;2252.80;;;;;;5033607;28;20029;-56
2022/11/19 08:14:28;;;;;;;142.05;108.00;;;256.50;2252.80;;;;;;5033536;28;20565;-55
2022/11/19 08:19:38;;;;;;;158.65;120.60;;;256.40;2252.80;;;;;;5033137;28;20167;-55
2022/11/19 08:22:04;;;;;;;157.82;127.05;;;256.50;2252.80;;;;;;5033397;28;20096;-55
2022/11/19 08:24:30;;;;;;;161.88;122.18;;;256.50;2252.80;;;;;;5033169;28;20030;-55
2022/11/19 08:26:56;;;;;;;133.73;103.50;;;256.70;2252.80;;;;;;5033038;28;20497;-56
2022/11/19 08:29:22;;;;;;;118.03;91.15;;;256.90;2252.80;;;;;;5033420;28;20033;-56
2022/11/19 08:31:49;;;;;;;112.32;87.28;;;256.80;2252.80;;;;;;5033124;28;20405;-56
2022/11/19 08:34:16;;;;;;;117.82;94.80;;;256.90;2252.80;;;;;;5032887;28;20144;-55
2022/11/19 08:36:42;;;;;;;120.10;97.35;;;281.60;2278.40;;;;;;5033007;28;20026;-56
2022/11/19 08:39:08;;;;;;;118.35;96.97;;;281.70;2278.40;;;;;;5032949;28;20049;-56
2022/11/19 08:44:17;;;;;;;151.77;111.10;;;281.70;2278.40;;;;;;5032860;28;20036;-56
2022/11/19 08:46:43;;;;;;;144.52;112.65;;;281.70;2278.40;;;;;;5032973;28;20038;-56
2022/11/19 08:49:10;;;;;;;142.07;112.00;;;281.90;2278.40;;;;;;5032605;28;20502;-55
2022/11/19 08:51:36;;;;;;;136.15;105.55;;;281.90;2278.40;;;;;;5032866;28;20072;-56
2022/11/19 08:54:02;;;;;;;174.60;131.95;;;282.00;2278.40;;;;;;5032729;28;20559;-56
2022/11/19 08:56:28;;;;;;;175.82;136.30;;;281.90;2278.40;;;;;;5032061;28;20371;-56
2022/11/19 08:58:53;;;;;;;146.60;114.32;;;281.70;2278.40;;;;;;5032766;28;20478;-55
2022/11/19 09:01:19;;;;;;;140.35;107.40;;;281.90;2278.40;;;;;;5032387;28;20033;-55
2022/11/19 09:03:45;;;;;;;137.43;110.72;;;282.10;2278.40;;;;;;5032571;28;20028;-57
2022/11/19 09:06:11;;;;;;;119.25;95.30;;;282.20;2278.40;;;;;;5039784;28;20096;-56
2022/11/19 09:08:38;;;;;;;136.20;108.53;;;282.10;2278.40;;;;;;5052635;28;20051;-56
2022/11/19 09:11:08;;;;;;;150.40;124.80;;;282.10;2278.40;;;;;;5052636;28;20027;-55
2022/11/19 09:13:34;;;;;;;150.63;117.75;;;282.30;2278.40;;;;;;5014100;28;20038;-56
2022/11/19 09:16:00;;;;;;;100.38;80.50;;;282.30;2278.40;;;;;;5027073;28;20076;-57
2022/11/19 09:18:26;;;;;;;121.53;94.47;;;282.00;2278.40;;;;;;5027406;28;20514;-56
2022/11/19 09:20:55;;;;;;;197.10;161.85;;;281.80;2278.40;;;;;;5023035;28;20386;-55
2022/11/19 09:23:23;;;;;;;105.35;84.65;;;282.00;2278.40;;;;;;5029036;28;20474;-55
2022/11/19 09:25:59;;;;;;;239.38;211.50;;;282.20;2278.40;;;;;;5023808;28;20033;-55
2022/11/19 09:28:25;;;;;;;78.13;64.72;;;282.30;2278.40;;;;;;5030162;28;20449;-55
2022/11/19 09:31:03;;;;;;;65.82;54.78;;;282.20;2278.40;;;;;;5030243;28;20103;-55
2022/11/19 09:33:31;;;;;;;35.50;28.67;;;282.30;2278.40;;;;;;5025508;28;20075;-56
2022/11/19 09:35:57;;;;;;;40.08;30.00;;;281.90;2278.40;;;;;;5031720;28;20026;-57
2022/11/19 09:38:23;;;;;;;49.67;34.75;;;282.00;2278.40;;;;;;5031944;28;20094;-56
2022/11/19 09:40:51;;;;;;;55.33;44.65;;;282.10;2278.40;;;;;;5031593;28;20024;-55
2022/11/19 09:43:37;;;;;;;57.28;43.00;;;282.10;2278.40;;;;;;5031429;28;20125;-55
2022/11/19 09:46:11;;;;;;;48.63;36.00;;;282.30;2278.40;;;;;;5024999;28;20091;-56
2022/11/19 09:48:38;;;;;;;52.55;39.50;;;282.10;2278.40;;;;;;5024598;28;20037;-56
2022/11/19 09:51:13;;;;;;;75.43;52.67;;;282.20;2278.40;;;;;;5031472;28;20028;-59
2022/11/19 09:53:51;;;;;;;78.85;50.80;;;282.10;2278.40;;;;;;5031477;28;20025;-56
2022/11/19 09:56:33;;;;;;;37.90;30.13;;;282.30;2278.40;;;;;;5031465;28;20030;-57
2022/11/19 09:59:05;;;;;;;47.42;35.40;;;282.20;2278.40;;;;;;5031449;28;20445;-56
2022/11/19 10:01:39;;;;;;;45.17;31.30;;;282.00;2278.40;;;;;;5031885;28;20558;-56
2022/11/19 10:04:04;;;;;;;57.53;41.45;;;282.20;2278.40;;;;;;5031542;28;20028;-56
2022/11/19 10:06:49;;;;;;;67.35;46.38;;;282.20;2278.40;;;;;;5031316;28;20025;-56
2022/11/19 10:09:47;;;;;;;60.63;42.08;;;282.20;2278.40;;;;;;5028546;28;20168;-56
2022/11/19 10:13:10;;;;;;;82.93;59.38;;;282.10;2278.40;;;;;;5030042;28;20022;-56
2022/11/19 10:15:59;;;;;;;54.83;41.17;;;282.00;2278.40;;;;;;5029333;28;20458;-57
2022/11/19 10:18:50;;;;;;;84.80;67.38;;;282.00;2278.40;;;;;;5029538;28;20033;-56
2022/11/19 10:21:27;;;;;;;91.70;72.00;;;282.10;2278.40;;;;;;5029567;28;20030;-56
2022/11/19 10:24:16;;;;;;;89.85;70.70;;;282.10;2278.40;;;;;;5029364;28;20029;-57
2022/11/19 10:26:49;;;;;;;89.78;68.72;;;281.90;2278.40;;;;;;5029505;28;20037;-56
2022/11/19 10:29:19;;;;;;;102.57;80.70;;;281.80;2278.40;;;;;;5029649;28;20037;-55
2022/11/19 10:31:49;;;;;;;121.13;92.63;;;281.60;2278.40;;;;;;5029369;28;20040;-56
2022/11/19 10:34:22;;;;;;;112.47;92.68;;;256.80;2252.80;;;;;;5029378;28;20029;-56
2022/11/19 10:37:02;;;;;;;139.75;94.20;;;281.60;2278.40;;;;;;5028542;28;20030;-56
2022/11/19 10:39:37;;;;;;;122.72;98.70;;;281.90;2278.40;;;;;;5029136;28;20025;-56
2022/11/19 10:42:30;;;;;;;115.57;90.40;;;281.80;2278.40;;;;;;5029114;28;20555;-56
2022/11/19 10:45:26;;;;;;;119.82;94.32;;;281.80;2278.40;;;;;;5028920;28;20113;-56
2022/11/19 10:48:18;;;;;;;124.72;96.57;;;282.00;2278.40;;;;;;4929063;29;20067;-56
2022/11/19 10:50:46;;;;;;;137.83;111.87;;;281.90;2278.40;;;;;;4929545;29;20052;-56
2022/11/19 10:53:27;;;;;;;156.27;120.00;;;281.70;2278.40;;;;;;4929502;29;20036;-56
2022/11/19 10:56:00;;;;;;;114.90;91.13;;;281.70;2278.40;;;;;;4929442;29;20035;-56
2022/11/19 10:58:32;;;;;;;101.45;84.53;;;281.70;2278.40;;;;;;4929131;29;20043;-56
2022/11/19 11:01:01;;;;;;;115.57;92.20;;;281.70;2278.40;;;;;;4928628;29;20434;-55
2022/11/19 11:03:42;;;;;;;112.55;89.45;;;281.70;1945.60;;;;;;4927735;29;20107;-57
2022/11/19 11:06:09;;;;;;;110.80;87.68;;;281.60;2278.40;;;;;;4926625;29;20040;-57
2022/11/19 11:08:50;;;;;;;107.45;88.10;;;256.80;2252.80;;;;;;4929031;29;20039;-56
2022/11/19 11:14:50;;;;;;;105.57;83.22;;;256.80;2252.80;;;;;;4928996;29;20762;-58
2022/11/19 11:17:03;;;;;;;84.25;67.90;;;281.60;2278.40;;;;;;4909211;29;20063;-57
2022/11/19 11:19:29;;;;;;;91.13;71.45;;;256.90;2252.80;;;;;;4909515;29;20050;-57
2022/11/19 11:21:57;;;;;;;93.57;75.60;;;281.80;2278.40;;;;;;4910097;29;20036;-57
2022/11/19 11:24:32;;;;;;;98.90;71.72;;;282.00;2278.40;;;;;;4938570;28;20053;-56
2022/11/19 11:27:32;;;;;;;80.43;57.50;;;281.90;2278.40;;;;;;5007114;28;20026;-57
2022/11/19 11:30:25;;;;;;;74.10;56.13;;;281.90;1996.80;;;;;;4943612;29;20051;-57
2022/11/19 11:32:50;;;;;;;80.18;64.43;;;281.60;2278.40;;;;;;4944712;29;20098;-57
2022/11/19 11:35:33;;;;;;;80.80;61.67;;;281.70;2278.40;;;;;;4947910;29;20035;-57
2022/11/19 11:38:00;;;;;;;143.25;102.25;;;282.00;2278.40;;;;;;4947610;29;20035;-57
2022/11/19 11:40:26;;;;;;;132.93;97.00;;;282.00;2278.40;;;;;;4947120;29;20977;-57
2022/11/19 11:42:53;;;;;;;110.05;82.45;;;282.20;2201.60;;;;;;4946983;29;20091;-57
2022/11/19 11:45:30;;;;;;;122.05;89.20;;;282.30;2278.40;;;;;;4946140;29;20063;-57
2022/11/19 11:48:02;;;;;;;105.03;84.78;;;282.50;2278.40;;;;;;4947469;29;20027;-57
2022/11/19 11:50:28;;;;;;;112.20;89.38;;;282.40;2278.40;;;;;;4947614;29;20569;-57
2022/11/19 11:52:56;;;;;;;122.97;99.35;;;282.40;2278.40;;;;;;4947132;29;20043;-57
2022/11/19 11:55:22;;;;;;;165.50;132.85;;;282.50;2201.60;;;;;;4947192;29;20043;-58
2022/11/19 11:58:21;;;;;;;140.13;114.18;;;282.50;2278.40;;;;;;4947779;29;20040;-57
2022/11/19 12:00:47;;;;;;;166.23;123.53;;;307.20;2304.00;;;;;;4947098;29;20036;-57
2022/11/19 12:03:18;;;;;;;176.00;150.98;;;307.30;2304.00;;;;;;4947341;29;20529;-57
2022/11/19 12:05:46;;;;;;;146.60;127.72;;;307.30;2304.00;;;;;;4982881;28;20048;-57
2022/11/19 12:08:47;;;;;;;94.80;78.90;;;307.30;2304.00;;;;;;5007942;28;20026;-57
2022/11/19 12:11:56;;;;;;;104.45;86.95;;;307.20;2304.00;;;;;;5007969;28;20064;-56
2022/11/19 12:14:43;;;;;;;101.22;89.07;;;307.30;2304.00;;;;;;5008352;28;20026;-57
2022/11/19 12:17:29;;;;;;;119.50;105.35;;;282.50;2278.40;;;;;;5027820;28;20443;-57
2022/11/19 12:20:27;;;;;;;98.40;87.85;;;282.50;2278.40;;;;;;5026850;28;20040;-57
2022/11/19 12:23:14;;;;;;;98.30;84.90;;;282.50;2278.40;;;;;;5027839;28;20065;-57
2022/11/19 12:25:51;;;;;;;103.65;81.50;;;282.50;2278.40;;;;;;5026741;28;20021;-57
2022/11/19 12:28:37;;;;;;;104.95;92.55;;;282.50;2278.40;;;;;;5026319;28;20542;-57
2022/11/19 12:31:30;;;;;;;83.57;72.60;;;282.30;2278.40;;;;;;5027618;28;20037;-57
2022/11/19 12:34:18;;;;;;;100.72;78.30;;;282.30;2278.40;;;;;;5030871;28;20030;-57
2022/11/19 12:36:49;;;;;;;123.18;99.45;;;282.30;2278.40;;;;;;5030543;28;20025;-57
2022/11/19 12:40:05;;;;;;;142.23;110.35;;;282.30;2278.40;;;;;;5031279;28;20116;-55
2022/11/19 12:42:44;;;;;;;134.25;107.95;;;282.40;2278.40;;;;;;4950579;29;20041;-57
2022/11/19 12:45:18;;;;;;;129.15;100.15;;;282.30;2278.40;;;;;;4950126;29;20047;-55